Time;durP1;ratioP1;P1;durP2;ratioP2;P2;SDS_P1;SDS_P2;PMS_P1;PMS_P2;Temp;Humidity;BMP_temperature;BMP_pressure;BME280_temperature;BME280_humidity;BME280_pressure;Samples;Min_cycle;Max_cycle;Signal;HPM_P1;HPM_P2
2021/06/01 00:01:12;;;;;;;6.63;5.83;;;13.60;99.00;;;;;;5013135;28;20516;-77
2021/06/01 00:03:39;;;;;;;6.43;5.10;;;13.60;98.90;;;;;;4995979;28;20780;-77
2021/06/01 00:06:06;;;;;;;5.73;5.03;;;13.60;98.70;;;;;;5012112;28;20808;-77
2021/06/01 00:08:33;;;;;;;5.10;4.50;;;13.60;98.30;;;;;;4995181;28;20451;-77
2021/06/01 00:11:00;;;;;;;5.83;4.77;;;13.60;98.40;;;;;;4994683;28;20957;-77
2021/06/01 00:13:27;;;;;;;5.83;5.23;;;13.50;98.60;;;;;;5013730;28;20432;-77
2021/06/01 00:15:54;;;;;;;6.30;5.30;;;13.50;98.90;;;;;;4991458;28;20472;-77
2021/06/01 00:18:21;;;;;;;6.00;5.40;;;13.40;98.60;;;;;;5012668;28;20882;-76
2021/06/01 00:20:48;;;;;;;5.30;4.80;;;13.40;98.30;;;;;;5011878;28;20567;-76
2021/06/01 00:23:14;;;;;;;7.97;4.83;;;13.40;98.20;;;;;;5003203;28;20974;-76
2021/06/01 00:25:41;;;;;;;6.30;4.90;;;13.30;98.80;;;;;;5011537;28;20460;-76
2021/06/01 00:28:08;;;;;;;5.90;4.40;;;13.30;99.20;;;;;;5013400;28;20465;-76
2021/06/01 00:30:36;;;;;;;6.13;4.37;;;13.30;99.00;;;;;;5013067;28;20473;-77
2021/06/01 00:33:03;;;;;;;9.10;6.17;;;13.30;99.10;;;;;;5012192;28;20441;-77
2021/06/01 00:35:33;;;;;;;5.40;4.60;;;13.30;98.90;;;;;;5011765;28;20517;-77
2021/06/01 00:38:03;;;;;;;8.37;5.00;;;13.30;98.90;;;;;;5012990;28;20467;-77
2021/06/01 00:40:30;;;;;;;6.37;4.97;;;13.20;99.00;;;;;;5011857;28;20473;-77
2021/06/01 00:42:57;;;;;;;6.03;4.90;;;13.20;98.80;;;;;;5013353;28;20437;-77
2021/06/01 00:45:26;;;;;;;7.47;4.93;;;13.20;98.50;;;;;;4987999;28;20469;-77
2021/06/01 00:47:54;;;;;;;6.33;4.60;;;13.20;98.40;;;;;;5013077;28;20476;-77
2021/06/01 00:50:26;;;;;;;7.20;5.10;;;13.10;98.10;;;;;;4994104;28;20499;-77
2021/06/01 00:52:54;;;;;;;5.53;5.00;;;13.10;98.40;;;;;;5013574;28;20425;-77
2021/06/01 00:55:22;;;;;;;8.50;4.67;;;13.00;98.50;;;;;;5009159;28;20473;-77
2021/06/01 00:57:49;;;;;;;5.97;4.60;;;13.00;98.50;;;;;;5004548;28;20452;-77
2021/06/01 01:02:54;;;;;;;4.53;4.13;;;12.90;98.90;;;;;;4980649;28;20840;-77
2021/06/01 01:05:24;;;;;;;10.03;5.20;;;12.90;98.80;;;;;;4988150;28;21336;-76
2021/06/01 01:11:09;;;;;;;6.17;4.80;;;12.90;98.60;;;;;;5007728;28;20544;-77
2021/06/01 01:13:54;;;;;;;5.27;4.37;;;12.80;99.20;;;;;;5012217;28;20433;-77
2021/06/01 01:16:23;;;;;;;7.47;4.97;;;12.60;99.30;;;;;;5012899;28;20897;-77
2021/06/01 01:19:01;;;;;;;6.03;4.30;;;12.60;99.30;;;;;;5011623;28;21058;-76
2021/06/01 01:21:34;;;;;;;5.40;4.43;;;12.60;99.30;;;;;;5007179;28;20542;-76
2021/06/01 01:24:41;;;;;;;5.97;4.60;;;12.70;97.90;;;;;;5011867;28;20471;-76
2021/06/01 01:27:18;;;;;;;8.30;5.23;;;12.60;98.10;;;;;;4993719;28;20526;-76
2021/06/01 01:29:47;;;;;;;5.40;4.47;;;12.70;97.50;;;;;;5011971;28;20553;-76
2021/06/01 01:32:35;;;;;;;4.20;3.80;;;12.80;95.80;;;;;;4995120;28;20425;-77
2021/06/01 01:35:04;;;;;;;5.40;4.40;;;12.90;95.80;;;;;;5010133;28;21014;-77
2021/06/01 01:37:33;;;;;;;4.83;4.27;;;12.90;96.20;;;;;;4994440;28;20453;-76
2021/06/01 01:40:04;;;;;;;6.10;4.57;;;12.90;95.50;;;;;;5010119;28;20480;-76
2021/06/01 01:42:40;;;;;;;5.10;4.60;;;12.90;95.10;;;;;;4988902;28;20428;-76
2021/06/01 01:45:12;;;;;;;5.67;3.87;;;12.90;95.40;;;;;;5011805;28;20468;-77
2021/06/01 01:50:13;;;;;;;4.87;4.33;;;12.80;95.40;;;;;;4967575;28;20826;-77
2021/06/01 01:52:42;;;;;;;4.17;3.77;;;12.80;95.40;;;;;;5012101;28;20436;-77
2021/06/01 01:55:11;;;;;;;6.03;4.33;;;12.80;95.60;;;;;;5008914;28;20468;-77
2021/06/01 01:57:43;;;;;;;4.53;3.50;;;12.70;95.10;;;;;;4994185;28;20456;-77
2021/06/01 02:00:14;;;;;;;5.33;4.50;;;12.80;95.30;;;;;;5011631;28;20472;-77
2021/06/01 02:02:44;;;;;;;4.63;3.90;;;12.70;95.60;;;;;;5011975;28;20791;-76
2021/06/01 02:05:13;;;;;;;8.53;4.23;;;12.70;95.20;;;;;;5010163;28;20572;-77
2021/06/01 02:07:40;;;;;;;7.03;3.93;;;12.70;94.50;;;;;;5011275;28;20985;-77
2021/06/01 02:10:10;;;;;;;5.63;4.00;;;12.70;95.10;;;;;;5009867;28;20530;-77
2021/06/01 02:12:37;;;;;;;8.87;4.40;;;12.60;95.30;;;;;;5011673;28;20437;-77
2021/06/01 02:15:07;;;;;;;9.57;3.80;;;12.50;95.80;;;;;;5011087;28;21064;-77
2021/06/01 02:17:34;;;;;;;5.57;3.40;;;12.50;96.20;;;;;;5001942;28;20453;-77
2021/06/01 02:20:02;;;;;;;4.47;3.90;;;12.40;96.50;;;;;;5009410;28;20822;-77
2021/06/01 02:25:44;;;;;;;5.73;3.67;;;12.30;96.40;;;;;;5009015;28;20483;-76
2021/06/01 02:28:39;;;;;;;5.63;4.67;;;12.30;96.70;;;;;;5011722;28;20551;-77
2021/06/01 02:31:14;;;;;;;5.33;4.00;;;12.20;96.80;;;;;;5010318;28;20626;-77
2021/06/01 02:33:44;;;;;;;6.00;3.97;;;12.20;96.70;;;;;;5009289;28;20741;-77
2021/06/01 02:36:16;;;;;;;5.93;4.20;;;12.20;96.70;;;;;;5011878;28;20429;-77
2021/06/01 02:38:44;;;;;;;5.77;3.70;;;12.10;96.50;;;;;;5010633;28;20461;-77
2021/06/01 02:41:13;;;;;;;4.80;3.97;;;12.00;96.70;;;;;;5009805;28;20447;-77
2021/06/01 02:43:40;;;;;;;7.87;4.10;;;12.00;97.00;;;;;;5011182;28;20439;-77
2021/06/01 02:46:08;;;;;;;7.67;3.93;;;11.90;97.30;;;;;;5011527;28;20784;-76
2021/06/01 02:48:35;;;;;;;5.20;4.20;;;11.90;97.30;;;;;;4991380;28;20473;-76
2021/06/01 02:51:16;;;;;;;5.30;4.23;;;11.70;98.10;;;;;;5005505;28;20428;-77
2021/06/01 02:54:04;;;;;;;4.50;3.60;;;11.70;98.80;;;;;;5010900;28;20490;-76
2021/06/01 02:56:32;;;;;;;6.80;3.57;;;11.70;98.90;;;;;;5006243;28;20788;-77
2021/06/01 02:59:03;;;;;;;6.17;4.60;;;11.60;99.90;;;;;;5010645;28;20452;-77
2021/06/01 03:01:30;;;;;;;5.03;4.43;;;11.70;99.90;;;;;;5011325;28;20527;-77
2021/06/01 03:03:57;;;;;;;5.07;3.90;;;11.70;99.90;;;;;;4978230;28;20527;-77
2021/06/01 03:06:26;;;;;;;3.77;3.20;;;11.60;99.90;;;;;;5000731;28;20438;-77
2021/06/01 03:08:53;;;;;;;4.00;3.60;;;11.60;99.90;;;;;;5010357;28;20555;-76
2021/06/01 03:11:20;;;;;;;4.30;3.90;;;11.60;99.90;;;;;;4992437;28;20868;-76
2021/06/01 03:13:50;;;;;;;3.60;3.27;;;11.40;99.90;;;;;;5010581;28;20440;-76
2021/06/01 03:16:18;;;;;;;5.73;4.07;;;11.30;99.90;;;;;;5011852;28;20437;-77
2021/06/01 03:18:45;;;;;;;7.20;4.57;;;11.30;99.90;;;;;;5005242;28;20457;-76
2021/06/01 03:21:15;;;;;;;7.28;3.70;;;11.20;99.90;;;;;;4993935;28;20480;-77
2021/06/01 03:23:45;;;;;;;5.93;3.65;;;11.10;99.90;;;;;;5010398;28;20186;-78
2021/06/01 03:26:13;;;;;;;4.80;3.97;;;11.10;99.90;;;;;;5009592;28;20189;-78
2021/06/01 03:28:40;;;;;;;4.07;3.63;;;11.10;99.90;;;;;;5010084;28;20292;-78
2021/06/01 03:31:08;;;;;;;4.20;3.70;;;11.00;99.90;;;;;;5011009;28;20224;-78
2021/06/01 03:33:35;;;;;;;5.72;3.65;;;10.90;99.90;;;;;;5002847;28;20187;-78
2021/06/01 03:36:06;;;;;;;4.97;3.80;;;10.90;99.90;;;;;;4993635;28;20182;-78
2021/06/01 03:38:35;;;;;;;4.53;3.90;;;10.80;99.90;;;;;;5013797;28;20213;-78
2021/06/01 03:41:04;;;;;;;4.38;3.60;;;10.80;99.90;;;;;;5012895;28;20221;-78
2021/06/01 03:43:31;;;;;;;5.13;4.65;;;10.80;99.90;;;;;;4996310;28;20195;-75
2021/06/01 03:45:58;;;;;;;5.13;4.30;;;10.90;99.90;;;;;;5014587;28;20667;-78
2021/06/01 03:48:25;;;;;;;5.20;3.70;;;10.90;99.90;;;;;;5013442;28;20210;-79
2021/06/01 03:50:52;;;;;;;4.60;3.90;;;10.90;99.90;;;;;;5014261;28;20305;-78
2021/06/01 03:53:20;;;;;;;5.50;3.20;;;11.00;99.90;;;;;;5014562;28;20425;-78
2021/06/01 03:55:47;;;;;;;5.32;4.10;;;11.00;99.90;;;;;;5011941;28;20981;-78
2021/06/01 03:58:16;;;;;;;7.40;4.45;;;10.90;99.90;;;;;;5014168;28;20203;-78
2021/06/01 04:00:43;;;;;;;5.50;4.30;;;10.90;99.90;;;;;;4996531;28;20229;-78
2021/06/01 04:03:09;;;;;;;6.30;4.53;;;10.80;99.90;;;;;;4995266;28;20182;-78
2021/06/01 04:05:36;;;;;;;9.80;4.30;;;10.80;99.90;;;;;;5013225;28;20253;-78
2021/06/01 04:08:06;;;;;;;5.82;4.38;;;10.80;99.90;;;;;;5013900;28;20208;-79
2021/06/01 04:10:33;;;;;;;6.18;5.30;;;10.80;99.90;;;;;;4994290;28;20309;-78
2021/06/01 04:13:03;;;;;;;5.65;4.47;;;10.90;99.90;;;;;;5013943;28;20183;-76
2021/06/01 04:15:30;;;;;;;6.22;4.00;;;11.00;99.90;;;;;;5012286;28;20699;-78
2021/06/01 04:17:57;;;;;;;6.60;4.65;;;11.10;99.90;;;;;;4987248;28;20567;-78
2021/06/01 04:20:26;;;;;;;7.10;4.80;;;11.10;99.90;;;;;;4996030;28;20223;-78
2021/06/01 04:22:53;;;;;;;6.53;4.60;;;11.20;99.90;;;;;;5012095;28;20205;-78
2021/06/01 04:25:20;;;;;;;8.13;5.75;;;11.20;99.90;;;;;;4994378;28;20238;-78
2021/06/01 04:27:47;;;;;;;5.57;4.97;;;11.30;99.90;;;;;;5013265;28;20684;-78
2021/06/01 04:30:14;;;;;;;5.70;4.80;;;11.40;99.90;;;;;;5013147;28;20222;-78
2021/06/01 04:32:41;;;;;;;11.50;4.85;;;11.50;99.90;;;;;;5013216;28;20570;-78
2021/06/01 04:35:09;;;;;;;6.90;5.50;;;11.60;99.90;;;;;;4999798;28;20250;-78
2021/06/01 04:37:36;;;;;;;5.72;4.70;;;11.70;99.90;;;;;;5008516;28;20211;-78
2021/06/01 04:40:05;;;;;;;5.75;5.15;;;11.70;99.90;;;;;;5010806;28;20223;-78
2021/06/01 04:42:34;;;;;;;5.93;5.20;;;11.80;99.90;;;;;;5002808;28;20189;-76
2021/06/01 04:45:01;;;;;;;5.88;5.00;;;11.80;99.90;;;;;;5012401;28;20224;-78
2021/06/01 04:47:28;;;;;;;6.65;4.65;;;11.90;99.90;;;;;;5012453;28;20220;-78
2021/06/01 04:49:55;;;;;;;5.28;4.60;;;11.90;99.90;;;;;;4998424;28;20213;-78
2021/06/01 04:52:24;;;;;;;7.03;5.05;;;11.90;99.90;;;;;;4995699;28;20529;-78
2021/06/01 04:54:52;;;;;;;4.88;4.25;;;11.90;99.90;;;;;;5012428;28;20218;-78
2021/06/01 04:57:19;;;;;;;7.10;5.13;;;11.90;99.90;;;;;;5007596;28;20742;-78
2021/06/01 04:59:55;;;;;;;7.05;5.22;;;12.00;99.90;;;;;;5011289;28;20460;-78
2021/06/01 05:02:22;;;;;;;7.90;4.65;;;12.10;99.90;;;;;;5013078;28;20545;-78
2021/06/01 05:04:48;;;;;;;6.50;4.90;;;12.20;99.90;;;;;;5000964;28;21027;-78
2021/06/01 05:07:16;;;;;;;6.67;4.50;;;12.20;99.90;;;;;;5012628;28;20459;-78
2021/06/01 05:09:47;;;;;;;5.60;4.83;;;12.40;99.90;;;;;;5012393;28;20469;-78
2021/06/01 05:12:13;;;;;;;5.17;4.40;;;12.50;99.90;;;;;;5007985;28;20815;-78
2021/06/01 05:14:40;;;;;;;6.70;5.40;;;12.60;99.90;;;;;;5012386;28;20962;-78
2021/06/01 05:17:10;;;;;;;6.03;4.67;;;12.60;99.90;;;;;;5011695;28;21010;-78
2021/06/01 05:19:37;;;;;;;5.77;5.17;;;12.70;99.60;;;;;;5010586;28;20472;-78
2021/06/01 05:22:07;;;;;;;6.43;4.83;;;12.80;99.20;;;;;;5012817;28;20591;-78
2021/06/01 05:24:35;;;;;;;7.40;4.70;;;12.90;98.60;;;;;;5012138;28;20467;-78
2021/06/01 05:27:02;;;;;;;5.90;4.90;;;13.00;98.20;;;;;;4990249;28;20559;-78
2021/06/01 05:29:29;;;;;;;4.93;4.20;;;13.00;97.20;;;;;;4994594;28;20559;-78
2021/06/01 05:34:47;;;;;;;6.53;4.27;;;13.20;95.60;;;;;;4982930;28;20554;-78
2021/06/01 05:37:14;;;;;;;5.73;4.50;;;13.30;95.20;;;;;;5012188;28;20474;-79
2021/06/01 05:39:41;;;;;;;6.67;5.10;;;13.40;95.40;;;;;;5011870;28;20548;-77
2021/06/01 05:42:08;;;;;;;5.67;3.93;;;13.50;95.30;;;;;;4993479;28;20511;-79
2021/06/01 05:44:35;;;;;;;5.80;4.60;;;13.60;96.20;;;;;;5010549;28;20473;-78
2021/06/01 05:47:02;;;;;;;7.43;4.10;;;13.70;95.40;;;;;;5011911;28;20459;-79
2021/06/01 05:49:35;;;;;;;6.30;5.70;;;13.80;95.30;;;;;;4993409;28;20519;-79
2021/06/01 05:52:05;;;;;;;5.33;4.10;;;13.90;95.60;;;;;;4983221;28;20432;-79
2021/06/01 05:54:32;;;;;;;5.23;4.57;;;14.10;94.40;;;;;;5010269;28;20555;-79
2021/06/01 05:57:02;;;;;;;6.07;4.80;;;14.20;93.90;;;;;;5010518;28;20563;-79
2021/06/01 05:59:29;;;;;;;6.50;4.53;;;14.40;93.40;;;;;;4977034;28;20457;-79
2021/06/01 06:01:56;;;;;;;4.87;4.27;;;14.60;91.80;;;;;;5012220;28;20429;-75
2021/06/01 06:04:23;;;;;;;5.57;4.70;;;15.20;90.90;;;;;;5008017;28;20465;-75
2021/06/01 06:06:50;;;;;;;5.40;4.40;;;15.80;89.70;;;;;;4998563;28;20439;-76
2021/06/01 06:09:18;;;;;;;5.00;4.50;;;16.70;82.10;;;;;;5010547;28;20472;-77
2021/06/01 06:11:44;;;;;;;5.30;4.10;;;17.00;81.30;;;;;;4989424;28;20529;-77
2021/06/01 06:14:12;;;;;;;6.00;4.57;;;17.30;82.80;;;;;;4997492;28;20454;-78
2021/06/01 06:16:46;;;;;;;5.70;4.60;;;17.50;81.20;;;;;;5011914;28;20436;-77
2021/06/01 06:19:13;;;;;;;5.70;4.13;;;17.70;78.90;;;;;;5009674;28;20467;-77
2021/06/01 06:21:40;;;;;;;5.50;4.53;;;18.20;72.30;;;;;;5011588;28;20481;-77
2021/06/01 06:24:07;;;;;;;4.50;3.97;;;18.40;71.40;;;;;;5011082;28;20529;-76
2021/06/01 06:26:35;;;;;;;4.47;4.07;;;18.40;71.40;;;;;;5006673;28;20490;-77
2021/06/01 06:29:02;;;;;;;5.40;4.10;;;18.60;66.50;;;;;;5010533;28;20474;-76
2021/06/01 06:31:29;;;;;;;6.87;4.00;;;18.40;68.20;;;;;;4994093;28;20436;-77
2021/06/01 06:33:57;;;;;;;5.90;4.60;;;18.20;67.00;;;;;;5004939;28;20504;-79
2021/06/01 06:36:25;;;;;;;10.63;4.23;;;18.10;69.10;;;;;;4994116;28;20443;-79
2021/06/01 06:38:52;;;;;;;4.73;4.20;;;18.00;70.50;;;;;;5010792;28;20453;-76
2021/06/01 06:41:21;;;;;;;6.10;5.00;;;17.90;72.00;;;;;;4979538;28;20449;-77
2021/06/01 06:43:50;;;;;;;5.50;5.00;;;17.80;74.60;;;;;;4991982;28;20535;-78
2021/06/01 06:48:51;;;;;;;5.60;5.00;;;17.80;77.00;;;;;;5010593;28;20843;-78
2021/06/01 06:51:19;;;;;;;6.50;5.13;;;17.90;75.00;;;;;;5004775;28;20568;-78
2021/06/01 06:53:52;;;;;;;9.67;5.20;;;17.90;74.00;;;;;;5010478;28;20480;-76
2021/06/01 06:56:21;;;;;;;5.33;4.70;;;17.80;72.70;;;;;;4992462;28;20539;-78
2021/06/01 06:58:52;;;;;;;5.70;4.73;;;17.80;74.50;;;;;;4983418;28;20460;-79
2021/06/01 07:01:20;;;;;;;5.57;4.73;;;17.80;73.60;;;;;;5012200;28;20856;-78
2021/06/01 07:03:49;;;;;;;5.80;4.00;;;17.90;75.70;;;;;;5010489;28;20464;-78
2021/06/01 07:06:17;;;;;;;5.03;4.30;;;17.90;75.60;;;;;;4992440;28;20444;-78
2021/06/01 07:08:44;;;;;;;5.10;4.63;;;18.00;74.30;;;;;;5008701;28;20465;-78
2021/06/01 07:11:12;;;;;;;6.33;5.13;;;18.00;74.90;;;;;;4981560;28;20473;-78
2021/06/01 07:13:42;;;;;;;4.00;3.70;;;17.90;74.80;;;;;;5010611;28;20464;-78
2021/06/01 07:16:10;;;;;;;4.43;4.03;;;17.90;77.70;;;;;;5014418;28;20435;-78
2021/06/01 07:18:40;;;;;;;6.07;3.27;;;18.00;76.90;;;;;;4988038;28;20553;-78
2021/06/01 07:21:14;;;;;;;4.13;3.70;;;18.10;74.10;;;;;;4984994;28;20432;-78
2021/06/01 07:23:41;;;;;;;6.13;3.13;;;18.20;73.80;;;;;;5014119;28;20437;-78
2021/06/01 07:26:09;;;;;;;5.10;3.10;;;18.40;73.10;;;;;;4983676;28;20443;-79
2021/06/01 07:28:38;;;;;;;5.50;3.77;;;18.50;73.60;;;;;;4991768;28;20467;-78
2021/06/01 07:31:18;;;;;;;7.20;3.53;;;18.60;72.50;;;;;;4997917;28;20443;-79
2021/06/01 07:33:45;;;;;;;5.53;3.53;;;18.70;71.60;;;;;;5013927;28;20433;-78
2021/06/01 07:36:13;;;;;;;3.40;3.10;;;18.90;69.80;;;;;;5013005;28;20452;-78
2021/06/01 07:38:40;;;;;;;4.60;3.87;;;18.90;71.20;;;;;;5014026;28;20480;-78
2021/06/01 07:41:08;;;;;;;3.90;3.50;;;19.00;69.20;;;;;;4983150;28;20877;-79
2021/06/01 07:43:35;;;;;;;6.00;3.10;;;19.10;70.10;;;;;;4991480;28;20491;-78
2021/06/01 07:46:05;;;;;;;3.90;3.00;;;19.30;67.20;;;;;;4996489;28;20980;-78
2021/06/01 07:48:35;;;;;;;6.30;2.97;;;19.30;70.30;;;;;;5011763;28;21064;-78
2021/06/01 07:51:10;;;;;;;6.43;3.67;;;19.50;67.60;;;;;;5004098;28;20441;-79
2021/06/01 07:53:41;;;;;;;4.83;3.10;;;19.60;67.60;;;;;;4983846;28;20445;-78
2021/06/01 07:56:09;;;;;;;5.27;3.90;;;19.70;65.30;;;;;;4988693;28;20449;-76
2021/06/01 07:58:36;;;;;;;4.53;3.20;;;19.90;65.50;;;;;;4990333;28;20537;-79
2021/06/01 08:01:03;;;;;;;3.30;3.00;;;20.00;66.70;;;;;;4981782;28;20430;-78
2021/06/01 08:03:30;;;;;;;4.50;3.27;;;20.30;67.10;;;;;;4984967;28;20482;-74
2021/06/01 08:05:57;;;;;;;14.60;4.13;;;20.40;66.30;;;;;;4976883;28;20874;-78
2021/06/01 08:08:24;;;;;;;7.63;3.23;;;20.50;66.20;;;;;;4957788;28;20475;-75
2021/06/01 08:10:52;;;;;;;5.73;3.40;;;20.40;63.10;;;;;;4985507;28;20474;-75
2021/06/01 08:13:19;;;;;;;4.30;3.07;;;20.40;64.20;;;;;;4997223;28;20433;-77
2021/06/01 08:15:50;;;;;;;8.87;3.50;;;20.50;61.00;;;;;;4994581;28;20456;-78
2021/06/01 08:18:19;;;;;;;6.43;3.20;;;20.60;63.40;;;;;;4995352;28;20469;-78
2021/06/01 08:20:57;;;;;;;3.43;3.13;;;20.60;64.40;;;;;;4994339;28;20776;-75
2021/06/01 08:23:24;;;;;;;3.50;3.20;;;20.70;56.20;;;;;;4993911;28;20417;-78
2021/06/01 08:25:52;;;;;;;4.80;3.10;;;20.70;62.40;;;;;;4989128;28;20507;-76
2021/06/01 08:28:18;;;;;;;3.50;3.00;;;20.60;60.60;;;;;;4990106;28;20485;-78
2021/06/01 08:30:46;;;;;;;3.67;3.10;;;20.60;59.30;;;;;;4974784;28;20824;-78
2021/06/01 08:33:13;;;;;;;3.93;2.70;;;20.90;60.00;;;;;;4990298;28;20414;-75
2021/06/01 08:35:40;;;;;;;3.43;3.13;;;21.10;55.90;;;;;;4986261;28;20469;-76
2021/06/01 08:38:07;;;;;;;3.57;3.27;;;21.10;57.40;;;;;;4993333;28;20971;-78
2021/06/01 08:40:34;;;;;;;7.03;3.50;;;21.20;55.60;;;;;;4975619;28;20543;-76
2021/06/01 08:43:01;;;;;;;3.40;3.10;;;21.20;57.60;;;;;;4994446;28;20509;-78
2021/06/01 08:45:30;;;;;;;4.10;3.37;;;21.30;56.30;;;;;;4993600;28;21070;-78
2021/06/01 08:47:57;;;;;;;3.80;3.50;;;21.40;57.80;;;;;;4994271;28;20473;-76
2021/06/01 08:50:24;;;;;;;4.93;2.60;;;21.20;58.50;;;;;;4990188;28;20576;-76
2021/06/01 08:52:51;;;;;;;5.73;3.23;;;21.20;53.00;;;;;;4993132;28;20840;-78
2021/06/01 08:55:19;;;;;;;4.13;2.77;;;21.40;54.10;;;;;;4977986;28;20488;-78
2021/06/01 08:57:46;;;;;;;3.23;2.87;;;21.40;51.30;;;;;;4995947;28;20453;-79
2021/06/01 09:00:13;;;;;;;5.90;2.90;;;21.40;57.80;;;;;;4995254;28;20504;-78
2021/06/01 09:02:41;;;;;;;12.93;3.17;;;21.50;52.00;;;;;;4995782;28;20492;-77
2021/06/01 09:05:11;;;;;;;3.33;2.83;;;21.70;51.60;;;;;;4998668;28;20488;-78
2021/06/01 09:07:59;;;;;;;3.77;2.97;;;21.80;48.90;;;;;;4993652;28;20553;-77
2021/06/01 09:13:32;;;;;;;2.97;2.67;;;22.00;49.80;;;;;;5013335;28;20432;-77
2021/06/01 09:21:44;;;;;;;3.00;2.80;;;22.00;48.40;;;;;;4992272;28;20465;-78
2021/06/01 09:24:13;;;;;;;5.50;2.93;;;22.00;49.70;;;;;;4991826;28;20466;-77
2021/06/01 09:29:17;;;;;;;4.33;3.27;;;21.90;47.10;;;;;;4994654;28;20558;-78
2021/06/01 09:31:49;;;;;;;7.33;3.23;;;21.90;47.30;;;;;;5013005;28;20494;-78
2021/06/01 09:34:22;;;;;;;12.67;2.83;;;22.10;51.30;;;;;;4998001;28;20536;-77
2021/06/01 09:36:50;;;;;;;14.47;3.93;;;22.20;45.20;;;;;;4993286;28;20500;-77
2021/06/01 09:39:23;;;;;;;3.27;2.80;;;22.20;47.50;;;;;;4992801;28;20480;-78
2021/06/01 09:41:50;;;;;;;7.07;3.03;;;22.40;44.90;;;;;;4989926;28;20480;-78
2021/06/01 09:44:17;;;;;;;9.43;3.27;;;22.40;45.50;;;;;;4994710;28;20465;-78
2021/06/01 09:46:45;;;;;;;3.33;3.03;;;22.30;43.00;;;;;;5012391;28;20434;-77
2021/06/01 09:49:12;;;;;;;4.10;2.53;;;22.20;45.10;;;;;;4991330;28;20519;-77
2021/06/01 09:51:48;;;;;;;4.17;2.67;;;22.20;41.10;;;;;;4992031;28;20421;-77
2021/06/01 09:54:58;;;;;;;4.50;2.93;;;22.30;44.70;;;;;;4976982;28;20465;-77
2021/06/01 09:57:25;;;;;;;4.20;3.20;;;22.20;43.50;;;;;;4974660;28;20517;-78
2021/06/01 10:00:18;;;;;;;4.00;2.40;;;22.10;43.90;;;;;;4957116;28;20466;-78
2021/06/01 10:02:53;;;;;;;3.07;2.43;;;22.20;41.80;;;;;;4956336;28;20494;-78
2021/06/01 10:05:32;;;;;;;3.53;2.53;;;22.10;45.20;;;;;;4975864;28;20475;-77
2021/06/01 10:08:15;;;;;;;5.13;2.77;;;22.20;43.30;;;;;;5012321;28;20449;-77
2021/06/01 10:10:53;;;;;;;2.67;2.47;;;22.30;43.10;;;;;;4987575;28;20477;-77
2021/06/01 10:13:22;;;;;;;3.00;2.80;;;22.40;44.20;;;;;;4991285;28;21017;-78
2021/06/01 10:15:54;;;;;;;5.20;3.30;;;22.50;46.40;;;;;;4992173;28;20701;-77
2021/06/01 10:18:23;;;;;;;7.73;3.40;;;22.50;44.50;;;;;;4982062;28;20509;-78
2021/06/01 10:20:51;;;;;;;2.80;2.40;;;22.60;44.30;;;;;;4999545;28;20906;-77
2021/06/01 10:23:27;;;;;;;3.83;2.33;;;22.70;42.40;;;;;;4986253;28;20528;-77
2021/06/01 10:25:55;;;;;;;4.60;2.60;;;22.90;43.90;;;;;;5001184;28;20472;-77
2021/06/01 10:28:42;;;;;;;3.60;3.20;;;22.80;40.90;;;;;;4988370;28;20450;-77
2021/06/01 10:31:12;;;;;;;3.43;3.13;;;22.70;41.60;;;;;;4961649;28;20462;-78
2021/06/01 10:33:54;;;;;;;5.40;3.23;;;22.80;42.20;;;;;;4974669;28;20434;-77
2021/06/01 10:48:43;;;;;;;3.43;2.60;;;23.00;42.80;;;;;;4976831;28;21004;-78
2021/06/01 10:50:41;;;;;;;3.00;2.77;;;23.00;43.20;;;;;;5005419;28;20563;-78
2021/06/01 10:53:19;;;;;;;3.03;2.83;;;23.20;40.20;;;;;;4981604;28;20437;-77
2021/06/01 10:58:24;;;;;;;6.27;3.13;;;23.30;41.60;;;;;;4993951;28;20527;-77
2021/06/01 11:04:18;;;;;;;2.80;2.57;;;23.40;42.80;;;;;;4990555;28;20429;-77
2021/06/01 11:06:50;;;;;;;3.13;2.60;;;23.50;42.10;;;;;;4980882;28;20448;-71
2021/06/01 11:09:32;;;;;;;2.93;2.73;;;23.60;41.30;;;;;;4979626;28;20482;-71
2021/06/01 11:12:17;;;;;;;4.30;3.13;;;23.60;40.90;;;;;;4984232;28;20953;-71
2021/06/01 11:14:46;;;;;;;3.70;2.60;;;23.70;39.60;;;;;;4991735;28;20465;-71
2021/06/01 11:17:14;;;;;;;3.07;2.77;;;23.70;40.00;;;;;;4999573;28;20501;-71
2021/06/01 11:19:57;;;;;;;3.93;2.80;;;23.70;40.80;;;;;;4970935;28;20684;-71
2021/06/01 11:33:25;;;;;;;2.63;2.50;;;24.10;39.60;;;;;;5014061;28;20434;-71
2021/06/01 11:36:04;;;;;;;2.60;2.40;;;24.00;40.00;;;;;;4994408;28;20495;-71
2021/06/01 11:38:41;;;;;;;4.03;2.97;;;24.00;40.30;;;;;;5009301;28;20455;-73
2021/06/01 11:43:56;;;;;;;3.70;3.13;;;24.10;38.80;;;;;;5008847;28;20496;-70
2021/06/01 11:46:48;;;;;;;4.47;3.37;;;24.10;39.30;;;;;;5014548;28;20442;-72
2021/06/01 11:52:01;;;;;;;3.83;2.83;;;24.00;39.30;;;;;;4980088;28;20432;-72
2021/06/01 11:54:29;;;;;;;4.30;2.77;;;24.10;38.70;;;;;;4995030;28;20524;-72
2021/06/01 12:18:59;;;;;;;3.83;2.60;;;24.40;38.00;;;;;;4977251;28;20476;-72
2021/06/01 12:21:38;;;;;;;3.03;2.77;;;24.30;38.80;;;;;;4982160;28;20448;-72
2021/06/01 12:24:26;;;;;;;4.27;2.83;;;24.30;37.80;;;;;;4993687;28;20474;-72
2021/06/01 12:32:26;;;;;;;4.10;2.87;;;24.50;35.60;;;;;;4995575;28;20479;-72
2021/06/01 12:43:41;;;;;;;4.90;2.77;;;24.50;38.40;;;;;;4986727;28;20822;-70
2021/06/01 13:09:08;;;;;;;3.17;2.87;;;24.50;36.90;;;;;;4973587;28;20446;-70
2021/06/01 13:56:24;;;;;;;7.93;2.67;;;24.70;38.60;;;;;;4984732;28;20444;-70
2021/06/01 14:37:43;;;;;;;4.07;3.23;;;24.70;39.20;;;;;;4985654;28;20896;-71
2021/06/01 15:49:31;;;;;;;3.33;3.03;;;24.40;38.90;;;;;;5012739;28;20465;-70
2021/06/01 16:14:47;;;;;;;4.90;2.90;;;24.00;37.30;;;;;;4974781;28;21009;-70
2021/06/01 16:23:06;;;;;;;2.50;2.30;;;23.90;36.70;;;;;;4972084;28;20443;-70
2021/06/01 17:07:00;;;;;;;3.33;3.03;;;23.60;38.20;;;;;;5012747;28;20426;-74
2021/06/01 17:11:59;;;;;;;3.37;3.07;;;23.60;37.40;;;;;;4997930;28;20463;-74
2021/06/01 17:14:27;;;;;;;3.13;2.87;;;23.50;37.00;;;;;;5011586;28;20646;-74
2021/06/01 17:17:01;;;;;;;4.13;2.93;;;23.50;36.70;;;;;;4993798;28;20446;-72
2021/06/01 17:22:34;;;;;;;5.43;2.90;;;23.50;36.80;;;;;;4993894;28;20434;-74
2021/06/01 17:36:03;;;;;;;3.90;2.97;;;23.40;37.60;;;;;;5000895;28;20465;-75
2021/06/01 17:38:31;;;;;;;5.90;3.20;;;23.40;38.00;;;;;;4993881;28;20465;-76
2021/06/01 17:41:02;;;;;;;3.17;2.97;;;23.40;38.10;;;;;;4994615;28;20462;-75
2021/06/01 17:43:34;;;;;;;3.70;2.93;;;23.40;38.00;;;;;;4993878;28;20438;-75
2021/06/01 17:46:06;;;;;;;3.53;3.00;;;23.30;38.40;;;;;;4994439;28;20461;-75
2021/06/01 17:48:41;;;;;;;3.70;3.40;;;23.30;38.80;;;;;;5012831;28;20848;-75
2021/06/01 17:51:09;;;;;;;3.53;3.20;;;23.20;39.10;;;;;;5007634;28;20468;-74
2021/06/01 17:53:47;;;;;;;4.30;3.67;;;23.20;39.00;;;;;;5027401;28;20421;-74
2021/06/01 17:56:26;;;;;;;6.13;3.40;;;23.20;39.50;;;;;;5010214;28;20885;-75
2021/06/01 17:58:58;;;;;;;6.27;3.33;;;23.10;39.10;;;;;;5006070;28;20472;-75
2021/06/01 18:01:28;;;;;;;5.90;3.30;;;23.10;38.50;;;;;;4998975;28;20451;-75
2021/06/01 18:04:04;;;;;;;3.40;3.20;;;23.10;40.80;;;;;;5027364;28;21022;-75
2021/06/01 18:06:43;;;;;;;3.93;3.20;;;23.00;39.90;;;;;;5025616;28;20451;-74
2021/06/01 18:09:36;;;;;;;3.87;3.20;;;23.00;40.40;;;;;;4991821;28;20556;-75
2021/06/01 18:12:35;;;;;;;3.87;2.73;;;22.90;40.80;;;;;;5009506;28;20564;-75
2021/06/01 18:35:49;;;;;;;3.23;2.90;;;22.50;43.20;;;;;;5010594;28;20839;-73
2021/06/01 19:26:48;;;;;;;3.37;3.17;;;21.40;52.60;;;;;;5012560;28;20939;-73
2021/06/01 19:44:09;;;;;;;6.87;4.00;;;20.40;58.40;;;;;;5011095;28;20431;-73
2021/06/01 19:51:49;;;;;;;4.23;2.80;;;19.90;60.50;;;;;;5009123;28;20466;-73
2021/06/01 19:54:22;;;;;;;3.50;3.20;;;19.80;61.00;;;;;;5004484;28;20475;-73
2021/06/01 19:56:49;;;;;;;5.53;3.60;;;19.70;60.50;;;;;;4988255;28;20444;-72
2021/06/01 19:59:17;;;;;;;3.80;3.30;;;19.60;61.60;;;;;;4996712;28;20490;-74
2021/06/01 20:01:44;;;;;;;6.20;3.63;;;19.60;61.50;;;;;;5013697;28;20436;-73
2021/06/01 20:04:11;;;;;;;4.83;4.07;;;19.60;62.70;;;;;;4999999;28;20468;-72
2021/06/01 20:06:39;;;;;;;5.13;3.70;;;19.50;61.60;;;;;;4994251;28;20444;-73
2021/06/01 20:09:07;;;;;;;3.60;3.40;;;19.50;62.20;;;;;;4994359;28;20447;-74
2021/06/01 20:11:34;;;;;;;4.27;3.90;;;19.40;62.50;;;;;;4995609;28;20535;-73
2021/06/01 20:14:02;;;;;;;5.00;4.07;;;19.30;62.80;;;;;;4994586;28;20896;-73
2021/06/01 20:16:34;;;;;;;4.70;3.33;;;19.20;63.10;;;;;;5014015;28;20932;-72
2021/06/01 20:19:02;;;;;;;4.83;3.77;;;19.20;63.10;;;;;;5012653;28;20454;-74
2021/06/01 20:21:32;;;;;;;4.10;3.53;;;19.10;63.50;;;;;;5009528;28;20815;-74
2021/06/01 20:24:03;;;;;;;5.50;3.30;;;19.10;65.80;;;;;;5010838;28;20468;-73
2021/06/01 20:26:31;;;;;;;5.10;3.77;;;19.00;65.70;;;;;;5012281;28;20545;-73
2021/06/01 20:29:06;;;;;;;5.83;4.23;;;18.90;67.30;;;;;;5012034;28;20470;-73
2021/06/01 20:31:40;;;;;;;4.70;4.00;;;18.80;68.10;;;;;;5011114;28;20978;-74